The Pas Airport
CYQD : now visible

Airfield :











YOU CAN JOIN US ON...

 
LOGIN :

Register | Disclaimer

   EN    FR    IT 

 









Legend :    VFR   Marginal VFR   IFR   Intensive IFR   Very Intensive IFR
Visi :
Ceiling :
>= 8 km
>= 3000ft
5 to 8 km
1000 to 3000 ft
1500m to 5 km
500 to 1000 ft
800 to 1500m
200 to 500 ft
< 800m
< 200 ft
Symbols :   Thunderstorms  Fog  Heavy snow  Heavy precipitations  Wind > 20 kt







- Airport Elevation : 887 ft
- IATA code : YQD


CYQD - The Pas

CURRENT METAR :
  • 260400Z AUTO 36004KT 9SM SCT110 BKN130 OVC150 17/15 A2966 RMK SLP048 DENSITY ALT 1600FT

EXPIRED METARs :
  • 260300Z AUTO 31003KT 290V360 9SM FEW039 SCT048 OVC130 18/15 A2966 RMK SLP047 DENSITY ALT 1700FT
  • 260200Z AUTO 02003KT 340V070 9SM BKN150 18/15 A2963 RMK SLP039 DENSITY ALT 1700FT

TAF TAF CYQD
Valid from the 26 at 01:00 until the 26 at 13:00 UTC


260038Z 2601/2613 02005KT P6SM FEW040 SCT180
TEMPO 2601/2606 P6SM -SHRA BKN040 BKN180
FM260600 36008KT P6SM FEW006 SCT025 BKN060
TEMPO 2606/2613 4SM BR BKN006 BKN025 BKN060 RMK FCST BASED ON AUTO OBS. NXT FCST BY 260700Z
No reported NOTAMs for that airfield.



MET'MAP, your aeronautical weather chart ! - Copyright ORBIFLY December 2007 - Disclaimer

ORBIFLY MET'MAP TEAM :

Programming & Development : Alexandra Zaïnal
Concept & Development : Baudouin d'Aumeries
Co-Development & Prog : Marc-Olivier Méhu
Technical & hardware support : Manuel Goepfert

Contact : metmap@orbifly.com




SOURCES & CREDITS :

   NOAA       Earth
Advisory